createdAt,value
2018-09-20T00:00:03.113Z,99.90
2018-09-20T00:02:31.769Z,99.90
2018-09-20T00:05:00.478Z,99.90
2018-09-20T00:07:29.197Z,99.90
2018-09-20T00:09:57.898Z,99.90
2018-09-20T00:12:26.625Z,99.90
2018-09-20T00:14:55.366Z,99.90
2018-09-20T00:17:24.186Z,99.90
2018-09-20T00:19:53.029Z,99.90
2018-09-20T00:22:21.895Z,99.90
2018-09-20T00:24:50.789Z,99.90
2018-09-20T00:27:19.853Z,99.90
2018-09-20T00:29:48.492Z,99.90
2018-09-20T00:32:18.212Z,99.90
2018-09-20T00:34:46.693Z,99.90
2018-09-20T00:37:15.445Z,99.90
2018-09-20T00:39:44.336Z,99.90
2018-09-20T00:42:13.138Z,99.90
2018-09-20T00:44:41.680Z,99.90
2018-09-20T00:47:10.566Z,99.90
2018-09-20T00:49:39.377Z,99.90
2018-09-20T00:52:08.283Z,99.90
2018-09-20T00:54:36.967Z,99.90
2018-09-20T00:57:05.964Z,99.90
2018-09-20T00:59:34.542Z,99.90
2018-09-20T01:02:03.729Z,99.90
2018-09-20T01:04:32.704Z,99.90
2018-09-20T01:07:01.367Z,99.90
2018-09-20T01:09:30.144Z,99.90
2018-09-20T01:11:58.774Z,99.90
2018-09-20T01:14:27.462Z,99.90
2018-09-20T01:16:56.400Z,99.90
2018-09-20T01:19:25.226Z,99.90
2018-09-20T01:21:53.848Z,99.90
2018-09-20T01:24:22.435Z,99.90
2018-09-20T01:26:51.137Z,99.90
2018-09-20T01:29:19.715Z,99.90
2018-09-20T01:31:48.294Z,99.90
2018-09-20T01:34:17.075Z,99.90
2018-09-20T01:36:45.695Z,99.90
2018-09-20T01:39:15.878Z,99.90
2018-09-20T01:41:44.505Z,99.90
2018-09-20T01:44:13.765Z,99.90
2018-09-20T01:46:42.672Z,99.90
2018-09-20T01:49:11.466Z,99.90
2018-09-20T01:51:40.300Z,99.90
2018-09-20T01:54:09.114Z,99.90
2018-09-20T01:56:37.865Z,99.90
2018-09-20T01:59:06.662Z,99.90
2018-09-20T02:01:35.553Z,99.90
2018-09-20T02:04:04.388Z,99.90
2018-09-20T02:06:33.090Z,99.90
2018-09-20T02:09:02.071Z,99.90
2018-09-20T02:11:30.774Z,99.90
2018-09-20T02:13:59.589Z,99.90
2018-09-20T02:16:28.328Z,99.90
2018-09-20T02:18:57.207Z,99.90
2018-09-20T02:21:26.093Z,99.90
2018-09-20T02:23:54.691Z,99.90
2018-09-20T02:26:23.510Z,99.90
2018-09-20T02:28:52.284Z,99.90
2018-09-20T02:31:21.044Z,99.90
2018-09-20T02:33:49.657Z,99.90
2018-09-20T02:36:18.129Z,99.90
2018-09-20T02:38:46.880Z,99.90
2018-09-20T02:41:15.660Z,99.90
2018-09-20T02:43:44.285Z,99.90
2018-09-20T02:46:13.345Z,99.90
2018-09-20T02:48:41.882Z,99.90
2018-09-20T02:51:10.785Z,99.90
2018-09-20T02:53:39.549Z,99.90
2018-09-20T02:56:08.255Z,99.90
2018-09-20T02:58:37.248Z,99.90
2018-09-20T03:01:06.075Z,99.90
2018-09-20T03:03:34.867Z,99.90
2018-09-20T03:06:03.762Z,99.90
2018-09-20T03:08:32.467Z,99.90
2018-09-20T03:11:01.262Z,99.90
2018-09-20T03:13:30.158Z,99.90
2018-09-20T03:15:58.986Z,99.90
2018-09-20T03:18:27.574Z,99.90
2018-09-20T03:20:56.411Z,99.90
2018-09-20T03:23:25.150Z,99.90
2018-09-20T03:25:53.630Z,99.90
2018-09-20T03:28:22.379Z,99.90
2018-09-20T03:30:51.264Z,99.90
2018-09-20T03:33:20.001Z,99.90
2018-09-20T03:35:48.582Z,99.90
2018-09-20T03:38:17.700Z,99.90
2018-09-20T03:40:46.294Z,99.90
2018-09-20T03:43:14.811Z,99.90
2018-09-20T03:45:43.492Z,99.90
2018-09-20T03:48:12.598Z,99.90
2018-09-20T03:50:41.680Z,99.90
2018-09-20T03:53:10.350Z,99.90
2018-09-20T03:55:39.790Z,99.90
2018-09-20T03:58:08.696Z,99.90
2018-09-20T04:00:37.707Z,99.90
2018-09-20T04:03:06.617Z,99.90
2018-09-20T04:05:36.278Z,99.90
2018-09-20T04:08:05.701Z,99.90
2018-09-20T04:10:34.769Z,99.90
2018-09-20T04:13:03.380Z,99.90
2018-09-20T04:15:33.040Z,99.90
2018-09-20T04:18:01.851Z,99.90
2018-09-20T04:20:30.714Z,99.90
2018-09-20T04:22:59.286Z,99.90
2018-09-20T04:25:28.305Z,99.90
2018-09-20T04:27:58.827Z,99.90
2018-09-20T04:30:28.440Z,99.90
2018-09-20T04:32:57.557Z,99.90
2018-09-20T04:35:28.679Z,99.90
2018-09-20T04:37:58.077Z,99.90
2018-09-20T04:40:27.012Z,99.90
2018-09-20T04:42:56.573Z,99.90
2018-09-20T04:45:25.474Z,99.90
2018-09-20T04:47:54.434Z,99.90
2018-09-20T04:56:21.393Z,99.90
2018-09-20T04:58:50.513Z,99.90
2018-09-20T05:01:19.656Z,99.90
2018-09-20T05:03:49.080Z,99.90
2018-09-20T05:06:18.078Z,99.90
2018-09-20T05:08:46.760Z,99.90
2018-09-20T05:11:15.505Z,99.90
2018-09-20T05:13:44.167Z,99.90
2018-09-20T05:16:13.085Z,99.90
2018-09-20T05:18:41.720Z,99.90
2018-09-20T05:21:10.551Z,99.90
2018-09-20T05:23:39.470Z,99.90
2018-09-20T05:26:08.012Z,99.90
2018-09-20T05:28:37.355Z,99.90
2018-09-20T05:31:06.385Z,99.90
2018-09-20T05:33:35.806Z,99.90
2018-09-20T05:36:04.965Z,99.90
2018-09-20T05:38:33.772Z,99.90
2018-09-20T05:41:03.600Z,99.90
2018-09-20T05:43:32.710Z,99.90
2018-09-20T05:46:02.643Z,99.90
2018-09-20T05:48:31.712Z,99.90
2018-09-20T05:51:00.596Z,99.90
2018-09-20T05:53:29.426Z,99.90
2018-09-20T05:55:58.125Z,99.90
2018-09-20T05:58:27.240Z,99.90
2018-09-20T06:00:57.046Z,99.90
2018-09-20T06:03:26.098Z,99.90
2018-09-20T06:05:55.463Z,99.90
2018-09-20T06:08:24.366Z,99.90
2018-09-20T06:10:53.081Z,99.90
2018-09-20T06:13:22.116Z,99.90
2018-09-20T06:15:50.880Z,99.90
2018-09-20T06:18:19.811Z,99.90
2018-09-20T06:20:48.693Z,99.90
2018-09-20T06:23:17.661Z,99.90
2018-09-20T06:25:46.449Z,99.90
2018-09-20T06:28:15.126Z,99.90
2018-09-20T06:30:43.738Z,99.90
2018-09-20T06:33:14.262Z,99.90
2018-09-20T06:35:43.381Z,99.90
2018-09-20T06:38:13.135Z,99.90
2018-09-20T06:40:42.664Z,99.90
2018-09-20T06:43:11.447Z,99.90
2018-09-20T06:45:39.998Z,99.90
2018-09-20T06:48:08.724Z,99.90
2018-09-20T06:50:37.930Z,99.90
2018-09-20T06:53:07.265Z,99.90
2018-09-20T06:55:36.182Z,99.90
2018-09-20T06:58:04.886Z,99.90
2018-09-20T07:00:33.392Z,99.90
2018-09-20T07:03:02.471Z,99.90
2018-09-20T07:05:31.623Z,99.90
2018-09-20T07:08:00.548Z,99.90
2018-09-20T07:10:29.381Z,99.90
2018-09-20T07:12:58.129Z,99.90
2018-09-20T07:15:27.335Z,99.90
2018-09-20T07:17:56.200Z,99.90
2018-09-20T07:20:26.541Z,99.90
2018-09-20T07:22:55.735Z,99.90
2018-09-20T07:25:25.239Z,99.90
2018-09-20T07:27:55.831Z,99.90
2018-09-20T07:30:29.333Z,99.90
2018-09-20T07:32:58.525Z,99.90
2018-09-20T07:35:28.603Z,99.90
2018-09-20T07:37:57.759Z,99.90
2018-09-20T07:40:26.726Z,99.90
2018-09-20T07:42:55.602Z,99.90
2018-09-20T07:45:24.379Z,99.90
2018-09-20T07:47:53.868Z,99.90
2018-09-20T07:50:22.836Z,99.90
2018-09-20T07:52:51.815Z,99.90
2018-09-20T07:55:20.654Z,99.90
2018-09-20T07:57:49.644Z,99.90
2018-09-20T08:00:21.584Z,99.90
2018-09-20T08:02:50.702Z,99.90
2018-09-20T08:05:19.535Z,99.90
2018-09-20T08:07:48.527Z,99.90
2018-09-20T08:10:17.486Z,99.90
2018-09-20T08:12:46.441Z,99.90
2018-09-20T08:15:15.355Z,99.90
2018-09-20T08:17:44.159Z,99.90
2018-09-20T08:20:13.110Z,99.90
2018-09-20T08:22:42.233Z,99.90
2018-09-20T08:25:11.256Z,99.90
2018-09-20T08:27:40.640Z,99.90
2018-09-20T08:30:11.188Z,99.90
2018-09-20T08:32:40.553Z,99.90
2018-09-20T08:35:10.022Z,99.90
2018-09-20T08:37:38.661Z,99.90
2018-09-20T08:40:08.167Z,99.90
2018-09-20T08:42:37.460Z,99.90
2018-09-20T08:45:06.735Z,99.90
2018-09-20T08:47:35.341Z,99.90
2018-09-20T08:50:04.526Z,99.90
2018-09-20T08:52:33.368Z,99.90
2018-09-20T08:55:03.073Z,99.90
2018-09-20T08:57:37.331Z,99.90
2018-09-20T09:00:06.472Z,99.90
2018-09-20T09:02:35.234Z,99.90
2018-09-20T09:05:04.242Z,99.90
2018-09-20T09:07:33.118Z,99.90
2018-09-20T09:10:03.516Z,99.90
2018-09-20T09:12:32.956Z,99.90
2018-09-20T09:15:01.762Z,99.90
2018-09-20T09:17:30.922Z,99.90
2018-09-20T09:19:59.858Z,99.90
2018-09-20T09:22:32.047Z,99.90
2018-09-20T09:25:01.369Z,99.90
2018-09-20T09:27:30.103Z,99.90
2018-09-20T09:29:58.801Z,99.90
2018-09-20T09:32:27.743Z,99.90
2018-09-20T09:34:57.144Z,99.90
2018-09-20T09:37:26.467Z,99.90
2018-09-20T09:39:55.718Z,99.90
2018-09-20T09:42:24.610Z,99.90
2018-09-20T09:44:53.350Z,99.90
2018-09-20T09:47:22.240Z,99.90
2018-09-20T09:49:50.958Z,99.90
2018-09-20T09:52:20.118Z,99.90
2018-09-20T10:00:43.521Z,99.90
2018-09-20T10:03:13.163Z,99.90
2018-09-20T10:05:42.050Z,99.90
2018-09-20T10:08:11.362Z,99.90
2018-09-20T10:10:40.139Z,99.90
2018-09-20T10:13:09.250Z,99.90
2018-09-20T10:15:39.380Z,99.90
2018-09-20T10:18:08.708Z,99.90
2018-09-20T10:20:38.695Z,99.90
2018-09-20T10:23:07.819Z,99.90
2018-09-20T10:25:36.748Z,99.90
2018-09-20T10:28:06.546Z,99.90
2018-09-20T10:30:38.451Z,99.90
2018-09-20T10:33:09.126Z,99.90
2018-09-20T10:35:38.316Z,99.90
2018-09-20T10:38:07.942Z,99.90
2018-09-20T10:40:37.132Z,99.90
2018-09-20T10:43:06.339Z,99.90
2018-09-20T10:45:35.924Z,99.90
2018-09-20T10:48:05.432Z,99.90
2018-09-20T10:50:34.301Z,99.90
2018-09-20T10:53:03.246Z,99.90
2018-09-20T10:55:32.205Z,99.90
2018-09-20T10:58:01.613Z,99.90
2018-09-20T11:00:32.298Z,99.90
2018-09-20T11:03:01.165Z,99.90
2018-09-20T11:05:33.720Z,99.90
2018-09-20T11:08:02.841Z,99.90
2018-09-20T11:10:31.784Z,99.90
2018-09-20T11:15:53.622Z,99.90
2018-09-20T11:18:22.319Z,99.90
2018-09-20T11:20:51.260Z,99.90
2018-09-20T11:23:20.070Z,99.90
2018-09-20T11:25:50.289Z,99.90
2018-09-20T11:28:19.111Z,99.90
2018-09-20T11:30:48.269Z,99.90
2018-09-20T11:33:17.435Z,99.90
2018-09-20T11:35:46.376Z,99.90
2018-09-20T11:38:15.436Z,99.90
2018-09-20T11:40:46.460Z,99.90
2018-09-20T11:43:15.279Z,99.90
2018-09-20T11:45:44.208Z,99.90
2018-09-20T11:48:13.401Z,98.90
2018-09-20T11:50:42.436Z,97.90
2018-09-20T11:53:12.046Z,98.20
2018-09-20T11:55:42.399Z,98.30
2018-09-20T11:58:12.062Z,96.80
2018-09-20T12:00:41.681Z,96.80
2018-09-20T12:03:10.919Z,96.70
2018-09-20T12:05:40.258Z,97.20
2018-09-20T12:08:09.361Z,97.20
2018-09-20T12:23:47.006Z,98.20
2018-09-20T12:27:20.277Z,96.20
2018-09-20T12:29:50.459Z,95.40
2018-09-20T12:32:19.339Z,95.00
2018-09-20T12:34:48.895Z,95.20
2018-09-20T12:37:17.503Z,94.10
2018-09-20T12:39:46.204Z,90.80
2018-09-20T12:42:14.937Z,90.90
2018-09-20T12:44:43.674Z,91.70
2018-09-20T12:47:12.924Z,90.50
2018-09-20T12:49:42.015Z,89.20
2018-09-20T12:52:10.766Z,87.30
2018-09-20T12:54:39.681Z,89.40
2018-09-20T12:57:08.277Z,89.60
2018-09-20T12:59:37.490Z,92.80
2018-09-20T13:02:06.399Z,94.30
2018-09-20T13:04:35.453Z,94.30
2018-09-20T13:07:05.606Z,93.90
2018-09-20T13:09:34.882Z,93.60
2018-09-20T13:12:05.858Z,93.40
2018-09-20T13:14:36.858Z,90.40
2018-09-20T13:17:06.794Z,90.30
2018-09-20T13:19:37.195Z,88.80
2018-09-20T13:22:05.816Z,87.40
2018-09-20T13:24:34.611Z,89.20
2018-09-20T13:27:03.965Z,90.10
2018-09-20T13:29:34.597Z,88.90
2018-09-20T13:32:03.318Z,88.70
2018-09-20T13:34:32.453Z,88.10
2018-09-20T13:37:01.277Z,87.90
2018-09-20T13:39:29.996Z,88.00
2018-09-20T13:41:59.344Z,89.00
2018-09-20T13:44:28.110Z,90.30
2018-09-20T13:46:57.157Z,90.20
2018-09-20T13:49:25.829Z,89.10
2018-09-20T13:51:54.528Z,88.10
2018-09-20T13:54:24.276Z,88.10
2018-09-20T13:56:53.332Z,88.10
2018-09-20T13:59:22.165Z,86.90
2018-09-20T14:01:50.937Z,87.10
2018-09-20T14:04:19.650Z,87.10
2018-09-20T14:06:49.647Z,87.00
2018-09-20T14:09:18.993Z,88.80
2018-09-20T14:11:47.672Z,89.90
2018-09-20T14:14:16.409Z,87.80
2018-09-20T14:16:45.101Z,88.50
2018-09-20T14:19:14.378Z,89.50
2018-09-20T14:21:43.598Z,88.90
2018-09-20T14:24:12.627Z,88.10
2018-09-20T14:26:42.685Z,89.20
2018-09-20T14:29:12.169Z,85.60
2018-09-20T14:31:41.674Z,87.30
2018-09-20T14:34:10.736Z,88.00
2018-09-20T14:36:39.699Z,85.60
2018-09-20T14:39:10.550Z,86.90
2018-09-20T14:41:39.767Z,88.40
2018-09-20T14:44:08.651Z,90.10
2018-09-20T14:46:37.695Z,89.70
2018-09-20T14:49:06.914Z,90.10
2018-09-20T14:51:35.738Z,90.60
2018-09-20T14:54:04.725Z,90.40
2018-09-20T14:56:33.682Z,90.10
2018-09-20T14:59:02.883Z,88.70
2018-09-20T15:01:33.285Z,88.20
2018-09-20T15:04:02.478Z,90.10
2018-09-20T15:06:31.884Z,89.00
2018-09-20T15:09:01.032Z,85.40
2018-09-20T15:11:29.903Z,88.30
2018-09-20T15:13:58.812Z,88.10
2018-09-20T15:16:27.503Z,90.00
2018-09-20T15:18:56.413Z,90.50
2018-09-20T15:21:25.987Z,89.40
2018-09-20T15:23:54.646Z,90.30
2018-09-20T15:26:23.534Z,89.50
2018-09-20T15:28:53.010Z,90.00
2018-09-20T15:31:21.971Z,88.70
2018-09-20T15:33:51.102Z,89.10
2018-09-20T15:36:19.924Z,87.20
2018-09-20T15:38:48.889Z,88.40
2018-09-20T15:41:17.749Z,87.40
2018-09-20T15:43:46.714Z,90.00
2018-09-20T15:46:15.801Z,87.00
2018-09-20T15:48:44.623Z,88.30
2018-09-20T15:51:14.823Z,90.20
2018-09-20T15:53:43.944Z,91.50
2018-09-20T15:56:13.335Z,93.00
2018-09-20T15:58:43.379Z,92.50
2018-09-20T16:01:12.957Z,92.10
2018-09-20T16:03:42.011Z,92.00
2018-09-20T16:06:11.041Z,92.70
2018-09-20T16:08:40.821Z,93.10
2018-09-20T16:11:09.660Z,92.50
2018-09-20T16:13:47.129Z,93.80
2018-09-20T16:16:16.449Z,94.20
2018-09-20T16:18:46.330Z,94.90
2018-09-20T16:21:17.133Z,96.00
2018-09-20T16:23:50.892Z,96.20
2018-09-20T17:18:03.478Z,99.90
2018-09-20T17:20:32.948Z,97.80
2018-09-20T17:23:02.530Z,92.70
2018-09-20T17:25:31.398Z,92.90
2018-09-20T17:28:00.918Z,94.30
2018-09-20T18:08:08.630Z,94.60
2018-09-20T18:10:37.636Z,99.90
2018-09-20T18:13:07.784Z,99.90
2018-09-20T18:15:36.744Z,99.90
2018-09-20T18:18:05.717Z,99.90
2018-09-20T18:20:35.210Z,99.90
2018-09-20T18:23:04.370Z,99.90
2018-09-20T18:25:33.902Z,99.90
2018-09-20T18:28:03.937Z,99.90
2018-09-20T18:30:33.476Z,99.90
2018-09-20T18:33:02.650Z,99.90
2018-09-20T18:35:35.733Z,99.90
2018-09-20T18:38:08.524Z,99.90
2018-09-20T18:40:38.704Z,99.90
2018-09-20T18:43:08.594Z,99.90
2018-09-20T18:45:38.411Z,99.90
2018-09-20T18:48:10.647Z,99.90
2018-09-20T18:50:43.096Z,99.90
2018-09-20T18:53:12.348Z,99.90
2018-09-20T18:55:41.507Z,99.90
2018-09-20T19:01:04.426Z,99.90
2018-09-20T19:03:33.048Z,99.90
2018-09-20T19:06:01.996Z,99.90
2018-09-20T19:08:30.950Z,99.90
2018-09-20T19:10:59.785Z,99.90
2018-09-20T19:13:28.417Z,99.90
2018-09-20T19:15:57.085Z,99.90
2018-09-20T19:18:25.658Z,99.90
2018-09-20T19:20:54.600Z,99.90
2018-09-20T19:23:23.959Z,99.90
2018-09-20T19:25:53.644Z,99.90
2018-09-20T19:28:22.644Z,99.90
2018-09-20T19:30:51.241Z,99.90
2018-09-20T19:33:20.430Z,99.90
2018-09-20T19:35:49.518Z,99.90
2018-09-20T19:38:18.753Z,99.90
2018-09-20T19:40:48.657Z,99.90
2018-09-20T19:43:18.178Z,99.90
2018-09-20T19:45:46.993Z,99.90
2018-09-20T19:48:16.172Z,99.90
2018-09-20T19:50:46.231Z,99.90
2018-09-20T19:53:15.303Z,99.90
2018-09-20T19:55:44.727Z,99.90
2018-09-20T19:58:13.571Z,99.90
2018-09-20T20:00:42.708Z,99.90
2018-09-20T20:03:11.908Z,99.90
2018-09-20T20:06:07.362Z,99.90
2018-09-20T20:09:06.030Z,99.90
2018-09-20T20:17:38.534Z,99.90
2018-09-20T20:22:48.362Z,99.90
2018-09-20T20:25:18.062Z,99.90
2018-09-20T20:27:49.609Z,99.90
2018-09-20T20:30:18.703Z,99.90
2018-09-20T20:32:47.493Z,99.90
2018-09-20T20:35:16.628Z,99.90
2018-09-20T20:37:45.401Z,99.90
2018-09-20T20:40:14.344Z,99.90
2018-09-20T20:42:43.462Z,99.90
2018-09-20T20:45:12.310Z,99.90
2018-09-20T20:47:41.046Z,99.90
2018-09-20T20:50:09.953Z,99.90
2018-09-20T20:52:39.167Z,99.90
2018-09-20T20:55:09.440Z,99.90
2018-09-20T20:57:38.590Z,99.90
2018-09-20T21:00:07.116Z,99.90
2018-09-20T21:02:35.839Z,99.90
2018-09-20T21:05:04.807Z,99.90
2018-09-20T21:07:33.923Z,99.90
2018-09-20T21:10:02.922Z,99.90
2018-09-20T21:12:31.518Z,99.90
2018-09-20T21:15:00.248Z,99.90
2018-09-20T21:17:29.065Z,99.90
2018-09-20T21:19:58.576Z,99.90
2018-09-20T21:22:27.576Z,99.90
2018-09-20T21:24:56.169Z,99.90
2018-09-20T21:27:25.350Z,99.90
2018-09-20T21:29:53.956Z,99.90
2018-09-20T21:32:24.715Z,99.90
2018-09-20T21:34:55.786Z,99.90
2018-09-20T21:37:24.534Z,99.90
2018-09-20T21:39:53.465Z,99.90
2018-09-20T21:42:22.073Z,99.90
2018-09-20T21:44:50.803Z,99.90
2018-09-20T21:47:19.629Z,99.90
2018-09-20T21:49:48.266Z,99.90
2018-09-20T21:52:17.073Z,99.90
2018-09-20T21:54:45.730Z,99.90
2018-09-20T21:57:14.988Z,99.90
2018-09-20T21:59:44.256Z,99.90
2018-09-20T22:02:13.024Z,99.90
2018-09-20T22:04:42.592Z,99.90
2018-09-20T22:07:11.845Z,99.90
2018-09-20T22:09:40.743Z,99.90
2018-09-20T22:12:09.408Z,99.90
2018-09-20T22:14:38.252Z,99.90
2018-09-20T22:17:07.195Z,99.90
2018-09-20T22:19:36.038Z,99.90
2018-09-20T22:22:04.656Z,99.90
2018-09-20T22:24:33.773Z,99.90
2018-09-20T22:27:03.168Z,99.90
2018-09-20T22:29:31.742Z,99.90
2018-09-20T22:32:00.533Z,99.90
2018-09-20T22:34:29.300Z,99.90
2018-09-20T22:36:58.907Z,99.90
2018-09-20T22:39:27.761Z,99.90
2018-09-20T22:41:56.811Z,99.90
2018-09-20T22:44:25.792Z,99.90
2018-09-20T22:46:54.682Z,99.90
2018-09-20T22:49:23.610Z,99.90
2018-09-20T22:51:54.737Z,99.90
2018-09-20T22:54:24.629Z,99.90
2018-09-20T22:56:53.997Z,99.90
2018-09-20T22:59:22.810Z,99.90
2018-09-20T23:01:51.762Z,99.90
2018-09-20T23:04:21.752Z,99.90
2018-09-20T23:06:51.374Z,99.90
2018-09-20T23:09:20.253Z,99.90
2018-09-20T23:11:49.036Z,99.90
2018-09-20T23:14:17.998Z,99.90
2018-09-20T23:16:46.619Z,99.90
2018-09-20T23:19:15.787Z,99.90
2018-09-20T23:21:44.499Z,99.90
2018-09-20T23:24:13.479Z,99.90
2018-09-20T23:26:42.238Z,99.90
2018-09-20T23:29:11.173Z,99.90
2018-09-20T23:31:40.629Z,99.90
2018-09-20T23:34:11.841Z,99.90
2018-09-20T23:36:40.513Z,99.90
2018-09-20T23:39:11.442Z,99.90
2018-09-20T23:41:40.405Z,99.90
2018-09-20T23:44:09.548Z,99.90
2018-09-20T23:46:38.697Z,99.90
2018-09-20T23:49:08.846Z,99.90
2018-09-20T23:51:37.887Z,99.90
2018-09-20T23:54:06.651Z,99.90
2018-09-20T23:56:35.313Z,99.90
2018-09-20T23:59:04.134Z,99.90
